Ravia, Oklahoma
Current Conditions -  °F | °C
As of 4:55 PM on Sunday 25 Jan 2015 (Local Time) from KADM Reporting Station
Clear Clear  
Wind Chill: 61°   Ceiling: Unl
Heat Index: 61°   Visibility: 10mi
Dew Point: 28°   Wind: 22mph
Humidity: 29%   Direction: 340°NNW
Pressure: 30.05"   Gusts: 28mph
Location:  34.24°N, 96.75°W
Report Text: KADM 252255Z 34019G24KT 10SM SKC 16/M02 A3005
Loading
Personal Weather Stations






























Interactive Weather Map New forecast layout! Learn more

10-Day Weather Forecast

Advertisements
Track Severe Weather on mobile